Time;durP1;ratioP1;P1;durP2;ratioP2;P2;SDS_P1;SDS_P2;PMS_P1;PMS_P2;Temp;Humidity;BMP_temperature;BMP_pressure;BME280_temperature;BME280_humidity;BME280_pressure;Samples;Min_cycle;Max_cycle;Signal;HPM_P1;HPM_P2
2022/09/08 00:01:15;;;;;;;8.93;4.20;;;;;;;20.39;78.46;100817.59;5073206;28;20109;-56
2022/09/08 00:03:44;;;;;;;9.85;3.47;;;;;;;20.36;79.93;100812.72;5073198;28;20077;-59
2022/09/08 00:06:16;;;;;;;8.18;3.53;;;;;;;20.34;81.04;100803.16;5072704;28;20041;-59
2022/09/08 00:08:45;;;;;;;6.18;2.92;;;;;;;20.35;82.17;100788.97;5070865;28;20060;-61
2022/09/08 00:11:18;;;;;;;7.07;3.30;;;;;;;20.37;82.90;100786.69;5073933;28;20036;-59
2022/09/08 00:13:46;;;;;;;10.35;3.70;;;;;;;20.34;83.26;100779.03;5037283;28;20045;-57
2022/09/08 00:16:18;;;;;;;7.57;2.97;;;;;;;20.36;83.42;100784.25;5073550;28;20164;-54
2022/09/08 00:18:50;;;;;;;11.77;3.60;;;;;;;20.36;84.29;100779.53;5067387;28;20043;-57
2022/09/08 00:21:19;;;;;;;8.88;3.00;;;;;;;20.35;84.57;100777.09;5067821;28;20049;-58
2022/09/08 00:23:47;;;;;;;8.10;3.20;;;;;;;20.30;84.92;100783.66;5073864;28;20055;-60
2022/09/08 00:26:16;;;;;;;9.50;3.20;;;;;;;20.29;85.95;100779.25;5068885;28;20495;-61
2022/09/08 00:28:43;;;;;;;6.45;2.90;;;;;;;20.23;86.45;100783.38;5061236;28;20048;-59
2022/09/08 00:31:11;;;;;;;7.10;3.10;;;;;;;20.22;87.10;100778.97;5064797;28;20051;-58
2022/09/08 00:33:39;;;;;;;6.88;2.92;;;;;;;20.23;87.49;100775.06;5086826;28;20453;-59
2022/09/08 00:36:10;;;;;;;10.15;4.05;;;;;;;20.25;87.69;100772.75;5071783;28;20119;-59
2022/09/08 00:38:38;;;;;;;10.25;3.70;;;;;;;20.25;88.14;100769.16;5060988;28;20041;-59
2022/09/08 00:41:12;;;;;;;6.45;2.83;;;;;;;20.25;88.25;100767.22;5064233;28;20044;-59
2022/09/08 00:43:48;;;;;;;8.50;3.10;;;;;;;20.31;85.79;100774.19;5066169;28;20098;-58
2022/09/08 00:46:29;;;;;;;9.18;3.42;;;;;;;20.37;85.03;100800.53;5064513;28;20055;-59
2022/09/08 00:49:16;;;;;;;15.30;4.18;;;;;;;20.34;87.66;100797.59;5070176;28;20040;-56
2022/09/08 00:51:47;;;;;;;9.48;3.58;;;;;;;20.29;88.56;100779.25;5072080;28;20036;-60
2022/09/08 00:54:16;;;;;;;9.88;3.80;;;;;;;20.29;86.74;100779.25;5074048;28;20033;-58
2022/09/08 00:56:45;;;;;;;9.05;3.03;;;;;;;20.29;86.78;100770.94;5072210;28;20051;-58
2022/09/08 00:59:19;;;;;;;7.28;3.47;;;;;;;20.27;86.54;100762.16;5074660;28;20037;-59
2022/09/08 01:01:49;;;;;;;10.10;3.55;;;;;;;20.25;86.88;100742.31;5073205;28;20044;-57
2022/09/08 01:04:17;;;;;;;9.68;3.30;;;;;;;20.19;87.40;100746.44;5061493;28;20065;-58
2022/09/08 01:12:53;;;;;;;11.20;2.97;;;;;;;20.14;87.46;100752.97;5076845;28;20460;-60
2022/09/08 01:15:23;;;;;;;9.52;3.45;;;;;;;20.11;88.23;100758.38;5056858;28;20048;-55
2022/09/08 01:17:54;;;;;;;9.00;3.60;;;;;;;20.09;88.84;100741.28;5075392;28;20517;-57
2022/09/08 01:20:31;;;;;;;8.35;3.28;;;;;;;20.00;87.22;100727.50;5059346;28;20047;-58
2022/09/08 01:23:22;;;;;;;10.88;3.83;;;;;;;19.85;88.19;100717.03;5073472;28;20495;-58
2022/09/08 01:26:01;;;;;;;10.60;3.17;;;;;;;19.74;88.34;100722.09;5064762;28;20521;-55
2022/09/08 01:28:37;;;;;;;8.63;3.22;;;;;;;19.70;89.29;100723.91;5059637;28;20098;-60
2022/09/08 01:31:05;;;;;;;;;;;;;;;19.72;89.64;100710.56;5068984;28;20040;-60
2022/09/08 01:33:33;;;;;;;11.00;3.45;;;;;;;19.66;89.19;100700.81;5070422;28;19932;-56
2022/09/08 01:36:11;;;;;;;7.68;3.08;;;;;;;19.62;89.02;100702.63;5072533;28;20045;-59
2022/09/08 01:38:38;;;;;;;9.10;3.17;;;;;;;19.63;89.25;100698.72;5072363;28;20113;-57
2022/09/08 01:41:06;;;;;;;7.93;2.75;;;;;;;19.59;88.62;100696.59;5057796;28;20033;-57
2022/09/08 01:43:34;;;;;;;9.70;3.08;;;;;;;19.61;88.74;100704.59;5065721;28;20040;-58
2022/09/08 01:46:02;;;;;;;7.88;2.75;;;;;;;19.65;88.41;100685.38;5052547;28;20064;-57
2022/09/08 01:48:30;;;;;;;10.10;3.10;;;;;;;19.64;87.91;100681.00;5063540;28;20044;-57
2022/09/08 01:51:00;;;;;;;9.07;3.00;;;;;;;19.55;87.93;100679.09;5073333;28;20094;-58
2022/09/08 01:53:28;;;;;;;9.43;3.00;;;;;;;19.54;88.25;100665.59;5061198;28;20049;-57
2022/09/08 01:55:56;;;;;;;6.30;2.47;;;;;;;19.54;87.56;100682.97;5042075;28;20099;-55
2022/09/08 01:58:24;;;;;;;9.23;2.90;;;;;;;19.56;86.73;100685.41;5068466;28;20563;-56
2022/09/08 02:00:53;;;;;;;10.68;2.53;;;;;;;19.58;86.27;100689.47;5061042;28;20040;-60
2022/09/08 02:03:20;;;;;;;8.48;3.00;;;;;;;19.59;86.55;100691.09;5060096;28;20040;-58
2022/09/08 02:05:48;;;;;;;6.60;2.33;;;;;;;19.59;86.66;100674.50;5072990;28;20059;-61
2022/09/08 02:08:16;;;;;;;8.20;2.80;;;;;;;19.59;86.45;100674.50;5071169;28;20048;-60
2022/09/08 02:10:53;;;;;;;7.20;2.15;;;;;;;19.59;86.20;100674.50;5062142;28;20047;-57
2022/09/08 02:13:20;;;;;;;4.05;1.98;;;;;;;19.59;86.53;100671.72;5069870;28;20067;-57
2022/09/08 02:15:48;;;;;;;6.80;2.40;;;;;;;19.59;86.61;100663.44;5064597;28;20449;-59
2022/09/08 02:18:16;;;;;;;6.10;2.38;;;;;;;19.60;86.80;100664.25;5088778;28;20105;-60
2022/09/08 02:20:44;;;;;;;5.25;2.35;;;;;;;19.54;87.11;100660.88;5060514;28;20037;-59
2022/09/08 02:23:12;;;;;;;8.07;2.10;;;;;;;19.50;87.47;100654.38;5073347;28;20048;-61
2022/09/08 02:25:39;;;;;;;6.53;2.50;;;;;;;19.45;88.27;100649.03;5072949;28;20059;-59
2022/09/08 02:28:07;;;;;;;8.40;2.83;;;;;;;19.29;90.01;100643.28;5063269;28;20483;-58
2022/09/08 02:30:35;;;;;;;7.22;2.90;;;;;;;19.12;91.90;100637.78;5061177;28;20410;-57
2022/09/08 02:33:04;;;;;;;5.50;2.63;;;;;;;18.97;93.52;100641.91;5070208;28;20036;-60
2022/09/08 02:35:31;;;;;;;7.15;2.67;;;;;;;19.00;93.68;100645.97;5065710;28;20067;-55
2022/09/08 02:37:59;;;;;;;8.25;2.90;;;;;;;19.11;93.92;100650.81;5071039;28;20142;-58
2022/09/08 02:40:27;;;;;;;6.90;2.63;;;;;;;19.20;93.57;100642.50;5071705;28;20036;-58
2022/09/08 02:42:55;;;;;;;9.20;3.10;;;;;;;19.26;92.46;100635.63;5072157;28;20071;-60
2022/09/08 02:45:22;;;;;;;6.70;2.53;;;;;;;19.30;92.11;100633.03;5069407;28;20057;-59
2022/09/08 02:47:50;;;;;;;7.80;2.97;;;;;;;19.34;92.07;100628.47;5066820;28;20049;-59
2022/09/08 02:50:18;;;;;;;7.90;2.88;;;;;;;19.37;92.16;100627.81;5067046;28;20043;-60
2022/09/08 02:52:48;;;;;;;9.63;3.33;;;;;;;19.35;91.60;100625.34;5072913;28;20067;-59
2022/09/08 02:55:16;;;;;;;6.57;3.05;;;;;;;19.33;91.48;100626.84;5072972;28;20037;-59
2022/09/08 02:57:44;;;;;;;8.82;3.17;;;;;;;19.33;91.48;100621.31;5070180;28;20395;-63
2022/09/08 03:00:12;;;;;;;7.05;2.88;;;;;;;19.35;91.86;100619.84;5072742;28;20044;-60
2022/09/08 03:02:39;;;;;;;8.77;2.75;;;;;;;19.37;92.18;100617.56;5069444;28;20460;-58
2022/09/08 03:05:08;;;;;;;9.20;2.60;;;;;;;19.41;90.78;100625.16;5072958;28;20105;-59
2022/09/08 03:07:37;;;;;;;7.50;2.90;;;;;;;19.43;90.47;100631.97;5071741;28;20044;-60
2022/09/08 03:10:06;;;;;;;7.95;2.80;;;;;;;19.45;90.02;100618.66;5070873;28;20418;-60
2022/09/08 03:12:34;;;;;;;6.20;2.42;;;;;;;19.45;90.17;100624.19;5063611;28;20075;-61
2022/09/08 03:15:02;;;;;;;9.45;3.08;;;;;;;19.46;90.25;100630.50;5065361;28;20041;-60
2022/09/08 03:17:29;;;;;;;7.35;2.75;;;;;;;19.47;89.66;100635.72;5070032;28;20040;-61
2022/09/08 03:19:57;;;;;;;6.40;2.65;;;;;;;19.51;89.40;100630.34;5061923;28;20453;-58
2022/09/08 03:22:25;;;;;;;7.25;2.78;;;;;;;19.50;90.09;100632.28;5070037;28;20057;-58
2022/09/08 03:24:52;;;;;;;5.88;2.70;;;;;;;19.47;90.50;100632.94;5072691;28;20045;-59
2022/09/08 03:27:20;;;;;;;7.20;3.00;;;;;;;19.47;91.08;100648.72;5067932;28;20039;-57
2022/09/08 03:29:48;;;;;;;8.13;3.00;;;;;;;19.43;91.47;100648.56;5070876;28;20039;-58
2022/09/08 03:32:16;;;;;;;8.43;2.60;;;;;;;19.35;92.02;100635.59;5072783;28;20052;-58
2022/09/08 03:34:43;;;;;;;8.52;2.55;;;;;;;19.36;90.30;100631.69;5072334;28;20048;-58
2022/09/08 03:37:11;;;;;;;5.70;2.47;;;;;;;19.34;90.75;100631.25;5071596;28;20090;-58
2022/09/08 03:39:39;;;;;;;8.60;2.65;;;;;;;19.32;90.57;100628.00;5055167;28;20062;-60
2022/09/08 03:42:07;;;;;;;9.30;2.83;;;;;;;19.30;90.69;100627.50;5065064;28;20049;-58
2022/09/08 03:44:35;;;;;;;11.57;3.15;;;;;;;19.23;91.31;100627.22;5061344;28;20045;-60
2022/09/08 03:47:05;;;;;;;6.63;2.85;;;;;;;19.16;91.75;100617.47;5075244;28;20045;-60
2022/09/08 03:49:32;;;;;;;7.20;2.72;;;;;;;19.15;91.85;100623.34;5075862;28;20406;-58
2022/09/08 03:52:01;;;;;;;5.78;2.03;;;;;;;19.18;91.55;100635.69;5067326;28;20044;-58
2022/09/08 03:54:48;;;;;;;4.90;2.28;;;;;;;19.20;91.63;100638.94;5071629;28;20044;-61
2022/09/08 03:57:22;;;;;;;6.50;2.53;;;;;;;19.24;91.17;100645.41;5072265;28;20037;-57
2022/09/08 03:59:51;;;;;;;7.70;2.70;;;;;;;19.35;89.52;100657.72;5063813;28;20044;-57
2022/09/08 04:02:20;;;;;;;6.88;2.65;;;;;;;19.37;89.31;100660.97;5061740;28;20074;-61
2022/09/08 04:04:55;;;;;;;7.45;2.55;;;;;;;19.37;89.08;100661.75;5070037;28;20413;-58
2022/09/08 04:07:29;;;;;;;7.22;2.50;;;;;;;19.40;88.40;100663.03;5072594;28;20048;-60
2022/09/08 04:09:57;;;;;;;7.00;2.53;;;;;;;19.32;90.80;100652.84;5073407;28;20040;-56
2022/09/08 04:12:25;;;;;;;7.72;3.05;;;;;;;19.26;91.02;100643.91;5072576;28;20048;-60
2022/09/08 04:14:53;;;;;;;10.93;3.30;;;;;;;19.24;90.81;100646.22;5074344;28;20048;-57
2022/09/08 04:17:22;;;;;;;9.25;3.08;;;;;;;19.14;91.34;100641.03;5067863;28;20070;-57
2022/09/08 04:19:50;;;;;;;6.88;3.13;;;;;;;19.10;91.76;100629.88;5073889;28;20121;-57
2022/09/08 04:22:23;;;;;;;7.18;2.78;;;;;;;19.04;92.11;100642.22;5066661;28;20032;-59
2022/09/08 04:24:51;;;;;;;7.57;2.78;;;;;;;19.07;91.64;100652.63;5065165;28;20049;-57
2022/09/08 04:27:23;;;;;;;7.18;2.75;;;;;;;19.07;92.33;100646.28;5075199;28;20494;-56
2022/09/08 04:29:51;;;;;;;6.80;3.28;;;;;;;19.04;92.82;100635.88;5073343;28;20032;-56
2022/09/08 04:32:20;;;;;;;9.15;2.85;;;;;;;18.95;92.81;100646.94;5072101;28;20498;-58
2022/09/08 04:34:51;;;;;;;10.52;3.40;;;;;;;18.94;92.90;100657.19;5061573;28;20075;-57
2022/09/08 04:37:19;;;;;;;9.45;3.08;;;;;;;18.92;93.32;100650.38;5077012;28;20044;-56
2022/09/08 04:39:50;;;;;;;6.43;2.60;;;;;;;18.94;92.77;100653.63;5082475;28;20033;-63
2022/09/08 04:42:21;;;;;;;9.57;3.00;;;;;;;18.96;92.52;100650.53;5076282;28;20035;-57
2022/09/08 04:44:49;;;;;;;8.40;3.00;;;;;;;18.91;93.25;100659.81;5069060;28;20041;-60
2022/09/08 04:47:16;;;;;;;9.10;2.80;;;;;;;18.90;93.65;100660.94;5066837;28;20519;-57
2022/09/08 04:49:44;;;;;;;8.93;3.17;;;;;;;18.87;93.99;100661.59;5074841;28;20044;-60
2022/09/08 04:52:12;;;;;;;8.02;3.10;;;;;;;18.85;94.48;100669.38;5073812;28;20052;-59
2022/09/08 04:54:41;;;;;;;8.70;3.00;;;;;;;18.82;94.65;100667.28;4376465;28;10000944;-60
2022/09/08 04:57:08;;;;;;;8.27;2.70;;;;;;;18.84;94.13;100660.31;5054741;28;20265;-56
2022/09/08 04:59:36;;;;;;;7.65;2.85;;;;;;;18.85;93.99;100666.63;5063660;28;20055;-57
2022/09/08 05:02:04;;;;;;;8.73;2.95;;;;;;;18.87;93.70;100670.69;5061184;28;20045;-59
2022/09/08 05:04:31;;;;;;;6.55;2.60;;;;;;;18.88;93.80;100671.47;5066622;28;20137;-57
2022/09/08 05:06:59;;;;;;;7.38;2.55;;;;;;;18.90;92.89;100672.78;5070187;28;20060;-54
2022/09/08 05:09:27;;;;;;;7.53;2.75;;;;;;;18.89;93.35;100676.69;5067037;28;20040;-54
2022/09/08 05:11:54;;;;;;;6.28;2.63;;;;;;;18.88;93.13;100671.47;5053117;28;20056;-54
2022/09/08 05:14:22;;;;;;;8.05;3.20;;;;;;;18.89;93.11;100670.38;5064190;28;20546;-57
2022/09/08 05:16:50;;;;;;;5.20;2.55;;;;;;;18.91;93.06;100668.09;5068634;28;20037;-58
2022/09/08 05:19:17;;;;;;;7.18;3.30;;;;;;;18.94;93.14;100670.19;5052502;28;20418;-58
2022/09/08 05:21:45;;;;;;;6.60;2.78;;;;;;;18.99;91.70;100671.97;5038453;28;20041;-60
2022/09/08 05:24:13;;;;;;;7.18;2.53;;;;;;;19.00;91.74;100671.66;5061023;28;20052;-57
2022/09/08 05:26:41;;;;;;;7.97;3.40;;;;;;;18.97;93.40;100675.03;5068582;28;20048;-61
2022/09/08 05:29:08;;;;;;;7.60;2.95;;;;;;;18.97;93.24;100672.28;5049688;28;20037;-60
2022/09/08 05:31:36;;;;;;;5.25;2.40;;;;;;;18.97;93.11;100668.72;5070581;28;20047;-57
2022/09/08 05:34:04;;;;;;;8.82;3.28;;;;;;;19.00;93.62;100671.66;5070663;28;20044;-55
2022/09/08 05:36:34;;;;;;;6.78;3.05;;;;;;;19.03;93.13;100668.22;5070242;28;20139;-53
2022/09/08 05:39:06;;;;;;;8.20;2.80;;;;;;;19.05;92.53;100673.41;5069525;28;20048;-59
2022/09/08 05:41:34;;;;;;;6.45;2.88;;;;;;;19.05;92.78;100665.94;5067060;28;20172;-54
2022/09/08 05:44:02;;;;;;;6.97;2.92;;;;;;;19.05;93.00;100670.63;5055086;28;20086;-54
2022/09/08 05:46:30;;;;;;;5.32;2.83;;;;;;;19.05;92.78;100668.72;5053066;28;20056;-55
2022/09/08 05:49:00;;;;;;;7.25;2.72;;;;;;;19.06;93.08;100667.56;5068762;28;20121;-54
2022/09/08 05:51:28;;;;;;;5.68;2.63;;;;;;;19.05;93.29;100670.63;5069846;28;20055;-53
2022/09/08 05:53:59;;;;;;;6.82;2.72;;;;;;;19.05;93.11;100665.94;5069970;28;20045;-55
2022/09/08 05:56:27;;;;;;;7.88;3.00;;;;;;;19.05;93.27;100667.88;5055826;28;20036;-53
2022/09/08 05:58:57;;;;;;;8.60;2.65;;;;;;;19.04;93.21;100672.59;5060825;28;20663;-56
2022/09/08 06:01:27;;;;;;;7.10;2.78;;;;;;;19.02;93.42;100672.09;5066278;28;20044;-57
2022/09/08 06:03:56;;;;;;;7.07;3.20;;;;;;;19.01;93.88;100672.44;5061241;28;20068;-57
2022/09/08 06:06:24;;;;;;;7.25;3.08;;;;;;;19.02;93.31;100674.06;5058316;28;20052;-54
2022/09/08 06:08:56;;;;;;;6.65;3.20;;;;;;;19.01;93.64;100670.50;5074800;28;20037;-55
2022/09/08 06:11:24;;;;;;;8.38;3.92;;;;;;;18.97;94.16;100674.25;5065661;28;20057;-57
2022/09/08 06:13:52;;;;;;;6.65;3.20;;;;;;;18.94;94.13;100659.94;5072768;28;20051;-57
2022/09/08 06:16:21;;;;;;;6.97;2.92;;;;;;;18.96;94.10;100661.59;5069943;28;20417;-56
2022/09/08 06:18:50;;;;;;;6.00;2.85;;;;;;;18.96;94.03;100670.69;5071631;28;20376;-57
2022/09/08 06:21:23;;;;;;;8.77;3.50;;;;;;;18.97;94.30;100672.28;5069847;28;20414;-59
2022/09/08 06:23:53;;;;;;;13.35;4.45;;;;;;;18.98;94.31;100675.84;5067047;28;20101;-55
2022/09/08 06:27:14;;;;;;;16.58;5.53;;;;;;;18.98;93.75;100676.69;5070506;28;20048;-57
2022/09/08 06:29:59;;;;;;;13.80;3.95;;;;;;;18.98;94.53;100681.38;5054153;28;20059;-58
2022/09/08 06:32:35;;;;;;;10.57;3.78;;;;;;;18.95;94.54;100674.56;5059058;28;20533;-58
2022/09/08 06:35:30;;;;;;;8.88;3.75;;;;;;;18.94;94.13;100687.56;5053691;28;20048;-52
2022/09/08 06:38:02;;;;;;;9.65;3.45;;;;;;;18.94;95.28;100675.72;5064124;28;20117;-51
2022/09/08 06:40:43;;;;;;;7.43;3.08;;;;;;;18.96;94.72;100672.63;5073561;28;20450;-53
2022/09/08 06:43:53;;;;;;;7.60;2.97;;;;;;;18.96;95.16;100673.44;5066193;28;20046;-52
2022/09/08 06:46:34;;;;;;;11.95;3.40;;;;;;;18.95;95.14;100674.56;5062257;28;20060;-52
2022/09/08 06:49:01;;;;;;;6.35;3.00;;;;;;;18.95;95.63;100674.56;5061501;28;20157;-51
2022/09/08 06:51:36;;;;;;;7.30;3.25;;;;;;;18.97;95.09;100688.03;5071292;28;20184;-50
2022/09/08 06:54:10;;;;;;;7.30;3.60;;;;;;;18.98;95.19;100690.50;5070426;28;20033;-53
2022/09/08 06:56:59;;;;;;;6.63;3.15;;;;;;;18.96;95.76;100684.47;5065863;28;20052;-52
2022/09/08 07:00:01;;;;;;;6.00;3.25;;;;;;;18.95;95.13;100688.38;5059722;28;20498;-51
2022/09/08 07:02:55;;;;;;;6.85;3.30;;;;;;;18.93;95.44;100690.66;5058528;28;20122;-52
2022/09/08 07:05:31;;;;;;;8.82;3.50;;;;;;;18.95;95.63;100682.84;5068339;28;20044;-50
2022/09/08 07:08:17;;;;;;;7.97;3.45;;;;;;;18.96;95.42;100681.72;5069367;28;20483;-50
2022/09/08 07:10:59;;;;;;;5.18;2.72;;;;;;;18.96;95.68;100678.97;5072654;28;20045;-52
2022/09/08 07:13:32;;;;;;;10.30;3.58;;;;;;;18.97;96.16;100688.84;5065197;28;20518;-52
2022/09/08 07:16:37;;;;;;;10.13;3.70;;;;;;;18.97;95.64;100686.09;5073160;28;20044;-49
2022/09/08 07:19:28;;;;;;;6.40;3.33;;;;;;;18.97;96.33;100691.59;5064188;28;20053;-52
2022/09/08 07:22:15;;;;;;;8.90;3.35;;;;;;;19.00;96.19;100685.44;5075644;28;20045;-48
2022/09/08 07:24:44;;;;;;;7.27;3.53;;;;;;;19.02;96.39;100688.66;5051614;28;20079;-52
2022/09/08 07:27:14;;;;;;;7.60;3.38;;;;;;;19.05;96.53;100703.78;5070232;28;20307;-55
2022/09/08 07:29:56;;;;;;;6.03;3.08;;;;;;;19.06;95.33;100700.69;5061045;28;20044;-52
2022/09/08 07:32:33;;;;;;;6.18;3.22;;;;;;;19.08;95.52;100697.63;5068925;28;20033;-53
2022/09/08 07:35:26;;;;;;;6.65;3.42;;;;;;;19.07;96.74;100702.34;5068911;28;20045;-55
2022/09/08 07:37:56;;;;;;;7.47;3.25;;;;;;;19.09;96.51;100696.47;5064093;28;20033;-55
2022/09/08 07:40:40;;;;;;;8.20;3.35;;;;;;;19.08;96.46;100692.91;5056802;28;20101;-52
2022/09/08 07:43:10;;;;;;;6.18;2.97;;;;;;;19.07;97.08;100696.81;5063733;28;20086;-53
2022/09/08 07:45:48;;;;;;;9.27;3.38;;;;;;;19.06;97.16;100692.41;5065420;28;20040;-55
2022/09/08 07:48:57;;;;;;;7.00;3.28;;;;;;;19.10;96.37;100696.16;5063696;28;20033;-53
2022/09/08 07:51:27;;;;;;;6.45;3.40;;;;;;;19.15;96.44;100687.69;5052026;28;20051;-55
2022/09/08 07:53:58;;;;;;;7.07;3.20;;;;;;;19.17;95.97;100690.13;5053201;28;20106;-51
2022/09/08 07:56:47;;;;;;;9.55;3.47;;;;;;;19.20;95.99;100688.66;5069621;28;20044;-55
2022/09/08 07:59:56;;;;;;;7.07;3.55;;;;;;;19.21;94.80;100690.25;5064911;28;20048;-52
2022/09/08 08:02:42;;;;;;;6.30;3.50;;;;;;;19.19;96.38;100698.06;5057217;28;20090;-52
2022/09/08 08:05:13;;;;;;;8.07;3.45;;;;;;;19.18;94.86;100697.25;5064939;28;20061;-54
2022/09/08 08:08:03;;;;;;;7.15;3.05;;;;;;;19.17;95.10;100703.94;5076809;28;20423;-53
2022/09/08 08:10:43;;;;;;;8.82;3.60;;;;;;;19.22;93.05;100700.16;5073866;28;20037;-57
2022/09/08 08:13:19;;;;;;;9.45;3.90;;;;;;;19.23;94.06;100704.56;5074181;28;20232;-58
2022/09/08 08:15:49;;;;;;;;;;;;;;;19.33;89.95;100701.44;5073102;28;20048;-49
2022/09/08 08:18:49;;;;;;;8.57;3.58;;;;;;;19.32;91.49;100700.63;5074833;28;20302;-52
2022/09/08 08:21:30;;;;;;;9.75;3.90;;;;;;;19.34;93.06;100705.84;5074342;28;20045;-50
2022/09/08 08:24:05;;;;;;;7.97;2.88;;;;;;;19.35;90.84;100708.25;5064942;28;20045;-53
2022/09/08 08:26:52;;;;;;;8.90;3.95;;;;;;;19.41;91.64;100697.84;5075073;28;20051;-51
2022/09/08 08:29:35;;;;;;;7.60;3.13;;;;;;;19.41;93.16;100702.53;5060376;28;20506;-51
2022/09/08 08:32:11;;;;;;;10.82;3.63;;;;;;;19.42;92.40;100691.16;5070851;28;20037;-51
2022/09/08 08:35:06;;;;;;;6.75;3.35;;;;;;;19.43;92.42;100705.78;5074422;28;20052;-54
2022/09/08 08:37:37;;;;;;;7.18;3.22;;;;;;;19.44;91.57;100705.47;5071584;28;20066;-53
2022/09/08 08:40:26;;;;;;;9.57;3.30;;;;;;;19.45;91.14;100703.50;5073072;28;20115;-53
2022/09/08 08:43:04;;;;;;;7.85;3.35;;;;;;;19.50;91.18;100703.31;5058403;28;20057;-50
2022/09/08 08:45:50;;;;;;;9.95;4.03;;;;;;;19.52;90.28;100696.31;5069492;28;20093;-52
2022/09/08 08:48:43;;;;;;;7.30;3.42;;;;;;;19.55;89.12;100697.59;5070403;28;20044;-57
2022/09/08 08:51:23;;;;;;;7.15;3.40;;;;;;;19.59;89.06;100706.88;5073214;28;20101;-51
2022/09/08 08:54:14;;;;;;;6.65;2.97;;;;;;;19.64;88.84;100709.44;5066113;28;20048;-55
2022/09/08 08:56:56;;;;;;;7.15;3.30;;;;;;;19.71;87.91;100703.44;5059884;28;20041;-52
2022/09/08 08:59:44;;;;;;;6.03;3.05;;;;;;;19.77;87.13;100708.44;5068386;28;20486;-52
2022/09/08 09:02:39;;;;;;;6.45;3.38;;;;;;;19.78;86.75;100703.72;5069816;28;20041;-52
2022/09/08 09:05:18;;;;;;;7.03;3.50;;;;;;;19.79;86.13;100705.31;5059841;28;20033;-54
2022/09/08 09:08:05;;;;;;;8.10;3.20;;;;;;;19.83;83.78;100708.25;5072444;28;20085;-56
2022/09/08 09:10:49;;;;;;;8.07;3.25;;;;;;;19.82;83.66;100709.38;5074129;28;20036;-52
2022/09/08 09:13:42;;;;;;;5.78;2.50;;;;;;;19.83;83.29;100706.28;5073789;28;20106;-55
2022/09/08 09:16:22;;;;;;;4.65;2.90;;;;;;;19.82;82.92;100710.22;5053566;28;20503;-54
2022/09/08 09:19:06;;;;;;;5.32;2.65;;;;;;;19.83;82.35;100709.06;5069472;28;20045;-52
2022/09/08 09:21:53;;;;;;;7.80;2.85;;;;;;;19.82;81.84;100701.91;5062424;28;20041;-54
2022/09/08 09:24:37;;;;;;;5.15;2.60;;;;;;;19.88;82.31;100703.34;5061633;28;20062;-52
2022/09/08 09:27:40;;;;;;;6.20;2.70;;;;;;;19.88;81.57;100703.34;5063240;28;20053;-51
2022/09/08 09:30:23;;;;;;;5.07;2.35;;;;;;;19.93;81.46;100703.13;5067552;28;20449;-52
2022/09/08 09:33:10;;;;;;;7.25;2.38;;;;;;;19.96;80.76;100705.25;5074281;28;20560;-50
2022/09/08 09:35:57;;;;;;;4.78;2.22;;;;;;;20.03;80.25;100709.44;5051094;28;20037;-55
2022/09/08 09:38:36;;;;;;;5.95;2.17;;;;;;;20.06;80.17;100704.06;5070048;28;20409;-54
2022/09/08 09:41:14;;;;;;;4.18;2.10;;;;;;;20.08;80.35;100700.94;5061667;28;20551;-54
2022/09/08 09:44:11;;;;;;;7.57;2.90;;;;;;;20.01;80.38;100701.47;5073359;28;20086;-54
2022/09/08 09:47:18;;;;;;;5.60;2.35;;;;;;;19.93;80.51;100705.91;5073742;28;20036;-50
2022/09/08 09:50:17;;;;;;;6.10;2.50;;;;;;;19.88;81.33;100703.34;5068879;28;20499;-54
2022/09/08 09:52:59;;;;;;;8.15;3.13;;;;;;;19.89;81.20;100704.13;5068112;28;20108;-56
2022/09/08 09:56:11;;;;;;;7.38;3.00;;;;;;;19.96;79.08;100705.25;5072223;28;20040;-57
2022/09/08 09:58:54;;;;;;;6.32;2.60;;;;;;;19.83;80.56;100711.81;5072532;28;20105;-55
2022/09/08 10:01:34;;;;;;;9.10;3.25;;;;;;;19.83;80.36;100706.28;5070006;28;20134;-52
2022/09/08 10:04:35;;;;;;;10.02;3.55;;;;;;;19.88;80.25;100703.34;5075633;28;20041;-53
2022/09/08 10:07:22;;;;;;;10.85;4.50;;;;;;;19.94;80.39;100704.78;5041280;28;20127;-57
2022/09/08 10:10:07;;;;;;;12.15;4.03;;;;;;;19.88;80.86;100700.56;5069826;28;20045;-56
2022/09/08 10:12:34;;;;;;;12.98;3.60;;;;;;;19.84;80.94;100696.84;5047917;28;20044;-55
2022/09/08 10:15:29;;;;;;;19.08;5.30;;;;;;;19.89;81.18;100699.44;5072533;28;20041;-55
2022/09/08 10:18:20;;;;;;;10.80;3.60;;;;;;;19.94;80.40;100713.06;5071438;28;20044;-56
2022/09/08 10:21:09;;;;;;;7.82;2.55;;;;;;;19.90;80.00;100701.03;5054251;28;20041;-56
2022/09/08 10:23:39;;;;;;;8.20;2.72;;;;;;;19.83;80.00;100699.97;5072077;28;20041;-54
2022/09/08 10:26:52;;;;;;;12.68;4.20;;;;;;;19.79;80.01;100700.63;5075919;28;20466;-52
2022/09/08 10:29:31;;;;;;;10.57;4.45;;;;;;;19.91;80.76;100702.66;4723865;28;10000879;-54
2022/09/08 10:32:24;;;;;;;11.40;4.55;;;;;;;20.02;78.92;100702.28;5075304;28;20127;-56
2022/09/08 10:35:21;;;;;;;15.60;5.22;;;;;;;20.09;78.36;100702.56;5063433;28;20116;-56
2022/09/08 10:38:01;;;;;;;18.98;5.93;;;;;;;20.19;78.65;100710.47;5076178;28;20806;-54
2022/09/08 10:40:56;;;;;;;11.77;4.50;;;;;;;20.25;78.33;100691.69;5060305;28;20049;-56
2022/09/08 10:44:00;;;;;;;11.02;4.13;;;;;;;20.29;77.70;100689.91;5056403;28;20036;-53
2022/09/08 10:46:57;;;;;;;9.02;3.00;;;;;;;20.29;76.25;100690.69;5044824;28;20049;-56
2022/09/08 10:49:49;;;;;;;9.02;2.47;;;;;;;20.17;75.64;100690.63;5069839;28;20490;-57
2022/09/08 10:52:29;;;;;;;6.45;2.17;;;;;;;20.20;75.25;100688.00;5070037;28;20055;-52
2022/09/08 10:55:12;;;;;;;7.53;2.83;;;;;;;20.29;75.77;100682.41;5073468;28;20052;-55
2022/09/08 10:58:06;;;;;;;9.93;2.85;;;;;;;20.35;75.58;100683.81;5064646;28;20056;-55
2022/09/08 11:01:01;;;;;;;9.10;2.90;;;;;;;20.39;75.37;100687.53;5060985;28;20051;-55
2022/09/08 11:03:37;;;;;;;7.90;3.28;;;;;;;20.50;75.77;100679.63;5072030;28;20141;-55
2022/09/08 11:06:33;;;;;;;8.30;3.00;;;;;;;20.53;73.17;100687.25;5066026;28;20061;-55
2022/09/08 11:09:35;;;;;;;7.10;2.47;;;;;;;20.61;73.87;100685.56;5068794;28;20524;-58
2022/09/08 11:12:18;;;;;;;11.75;2.92;;;;;;;20.50;72.71;100678.81;5059570;28;20047;-53
2022/09/08 11:15:20;;;;;;;8.88;2.60;;;;;;;20.52;73.54;100680.09;5040885;28;20098;-53
2022/09/08 11:17:50;;;;;;;9.52;2.55;;;;;;;20.56;70.98;100671.94;5070679;28;20040;-55
2022/09/08 11:20:36;;;;;;;7.07;2.38;;;;;;;20.58;71.00;100680.72;5070225;28;20058;-57
2022/09/08 11:23:09;;;;;;;7.03;2.75;;;;;;;20.77;72.63;100678.25;5070282;28;20047;-54
2022/09/08 11:25:55;;;;;;;6.97;2.63;;;;;;;20.73;69.30;100682.06;5074959;28;20041;-53
2022/09/08 11:29:01;;;;;;;10.75;2.67;;;;;;;20.66;69.83;100679.84;5072763;28;20049;-57
2022/09/08 11:32:03;;;;;;;6.47;2.40;;;;;;;20.62;72.90;100685.25;5057618;28;20098;-53
2022/09/08 11:34:56;;;;;;;8.20;2.53;;;;;;;20.62;71.44;100681.69;5074327;28;20040;-53
2022/09/08 11:37:35;;;;;;;8.20;2.60;;;;;;;20.63;70.02;100677.75;5074637;28;20451;-53
2022/09/08 11:40:36;;;;;;;7.22;2.63;;;;;;;20.60;71.21;100678.44;5072057;28;20409;-52
2022/09/08 11:43:27;;;;;;;5.72;2.20;;;;;;;20.60;70.45;100679.25;5040352;28;20041;-54
2022/09/08 11:46:12;;;;;;;7.78;2.58;;;;;;;20.68;70.20;100683.06;5069287;28;20066;-53
2022/09/08 11:49:12;;;;;;;11.43;2.85;;;;;;;20.66;69.61;100677.09;5054954;28;20044;-51
2022/09/08 11:52:24;;;;;;;7.82;2.60;;;;;;;20.84;72.21;100678.53;5072718;28;20053;-57
2022/09/08 11:55:25;;;;;;;7.15;2.47;;;;;;;20.93;71.19;100669.34;5074872;28;20044;-57
2022/09/08 11:58:15;;;;;;;6.05;2.20;;;;;;;21.02;71.36;100661.72;5077195;28;20093;-54
2022/09/08 12:01:01;;;;;;;8.32;2.45;;;;;;;21.06;71.43;100655.16;5072136;28;20044;-52
2022/09/08 12:03:53;;;;;;;6.68;2.38;;;;;;;21.05;68.68;100658.28;5075072;28;20044;-53
2022/09/08 12:06:34;;;;;;;8.10;2.90;;;;;;;21.03;69.61;100652.28;5076343;28;20132;-53
2022/09/08 12:09:22;;;;;;;8.82;2.63;;;;;;;20.99;68.59;100659.63;5076551;28;20499;-54
2022/09/08 12:12:02;;;;;;;7.10;2.13;;;;;;;21.01;67.94;100660.09;5073141;28;20044;-54
2022/09/08 12:15:01;;;;;;;6.88;2.42;;;;;;;21.10;70.23;100652.50;5069498;28;20044;-54
2022/09/08 12:17:50;;;;;;;7.00;2.53;;;;;;;21.22;69.43;100648.97;5075674;28;20072;-57